createdAt,value
2017-03-12T00:00:47.433Z,6.3
2017-03-12T00:01:48.723Z,6.36
2017-03-12T00:02:49.920Z,6.36
2017-03-12T00:03:51.262Z,6.36
2017-03-12T00:04:52.510Z,6.29
2017-03-12T00:05:53.759Z,6.28
2017-03-12T00:06:55.006Z,6.19
2017-03-12T00:07:56.323Z,6.19
2017-03-12T00:08:57.571Z,6.19
2017-03-12T00:09:58.822Z,6.13
2017-03-12T00:11:00.124Z,6.06
2017-03-12T00:12:01.358Z,6.07
2017-03-12T00:13:02.617Z,6.07
2017-03-12T00:14:03.877Z,5.98
2017-03-12T00:15:05.227Z,6.09
2017-03-12T00:16:06.462Z,6.01
2017-03-12T00:17:07.703Z,5.95
2017-03-12T00:18:09.005Z,5.98
2017-03-12T00:19:10.256Z,5.93
2017-03-12T00:20:11.496Z,5.95
2017-03-12T00:21:12.769Z,6.01
2017-03-12T00:22:14.007Z,6.01
2017-03-12T00:23:15.328Z,6.07
2017-03-12T00:24:16.630Z,6.04
2017-03-12T00:25:17.946Z,5.96
2017-03-12T00:26:19.230Z,5.95
2017-03-12T00:27:20.479Z,5.98
2017-03-12T00:28:21.737Z,6
2017-03-12T00:29:22.978Z,5.96
2017-03-12T00:30:24.218Z,6
2017-03-12T00:31:25.446Z,5.98
2017-03-12T00:32:26.693Z,5.98
2017-03-12T00:33:27.943Z,6
2017-03-12T00:34:29.360Z,5.96
2017-03-12T00:35:30.691Z,5.93
2017-03-12T00:36:31.942Z,5.98
2017-03-12T00:37:33.218Z,5.96
2017-03-12T00:38:34.468Z,5.85
2017-03-12T00:39:35.716Z,5.89
2017-03-12T00:40:36.977Z,5.75
2017-03-12T00:41:38.197Z,5.77
2017-03-12T00:42:39.440Z,5.86
2017-03-12T00:43:40.825Z,5.77
2017-03-12T00:44:42.071Z,5.78
2017-03-12T00:45:43.339Z,5.81
2017-03-12T00:46:44.568Z,5.83
2017-03-12T00:47:45.803Z,5.78
2017-03-12T00:48:47.078Z,5.85
2017-03-12T00:49:48.310Z,5.82
2017-03-12T00:50:49.545Z,5.75
2017-03-12T00:51:50.828Z,5.91
2017-03-12T00:52:52.098Z,5.77
2017-03-12T00:53:53.307Z,5.78
2017-03-12T00:54:54.664Z,5.67
2017-03-12T00:55:55.933Z,5.75
2017-03-12T00:56:57.154Z,5.68
2017-03-12T00:57:58.391Z,5.73
2017-03-12T00:58:59.666Z,5.68
2017-03-12T01:00:00.947Z,5.75
2017-03-12T01:01:02.192Z,5.7
2017-03-12T01:02:03.563Z,5.66
2017-03-12T01:03:04.758Z,5.75
2017-03-12T01:04:05.996Z,5.73
2017-03-12T01:05:07.260Z,5.67
2017-03-12T01:06:08.529Z,5.67
2017-03-12T01:07:09.757Z,5.6
2017-03-12T01:08:11.186Z,5.67
2017-03-12T01:09:12.473Z,5.68
2017-03-12T01:10:13.712Z,5.63
2017-03-12T01:11:14.963Z,5.53
2017-03-12T01:12:16.258Z,5.55
2017-03-12T01:13:17.482Z,5.6
2017-03-12T01:14:18.795Z,5.55
2017-03-12T01:15:20.041Z,5.5
2017-03-12T01:16:21.329Z,5.6
2017-03-12T01:17:22.566Z,5.48
2017-03-12T01:18:23.821Z,5.55
2017-03-12T01:19:25.119Z,5.59
2017-03-12T01:20:26.357Z,5.49
2017-03-12T01:21:27.609Z,5.45
2017-03-12T01:22:28.852Z,5.45
2017-03-12T01:23:30.103Z,5.49
2017-03-12T01:24:31.374Z,5.5
2017-03-12T01:25:32.718Z,5.4
2017-03-12T01:26:34.042Z,5.48
2017-03-12T01:27:35.279Z,5.45
2017-03-12T01:28:36.535Z,5.38
2017-03-12T01:29:37.768Z,5.31
2017-03-12T01:30:39.000Z,5.32
2017-03-12T01:31:40.267Z,5.4
2017-03-12T01:32:41.561Z,5.37
2017-03-12T01:33:42.957Z,5.27
2017-03-12T01:34:44.266Z,5.3
2017-03-12T01:35:45.498Z,5.32
2017-03-12T01:36:46.752Z,5.4
2017-03-12T01:37:47.983Z,5.31
2017-03-12T01:38:49.257Z,5.3
2017-03-12T01:39:50.477Z,5.32
2017-03-12T01:40:51.748Z,5.3
2017-03-12T01:41:53.000Z,5.22
2017-03-12T01:42:54.249Z,5.2
2017-03-12T01:43:55.547Z,5.17
2017-03-12T01:44:56.966Z,5.23
2017-03-12T01:45:58.121Z,5.19
2017-03-12T01:46:59.388Z,5.13
2017-03-12T01:48:00.606Z,5.1
2017-03-12T01:49:01.825Z,5.13
2017-03-12T01:50:03.068Z,4.98
2017-03-12T01:51:04.313Z,5.16
2017-03-12T01:52:05.598Z,5.09
2017-03-12T01:53:06.835Z,5.14
2017-03-12T01:54:08.090Z,5.12
2017-03-12T01:55:09.346Z,5.1
2017-03-12T01:56:10.583Z,5.09
2017-03-12T01:57:11.828Z,5.04
2017-03-12T01:58:13.082Z,5.01
2017-03-12T01:59:14.361Z,5.09
2017-03-12T02:00:15.599Z,4.92
2017-03-12T02:01:16.822Z,5.01
2017-03-12T02:02:18.064Z,4.94
2017-03-12T02:03:19.313Z,4.92
2017-03-12T02:04:20.648Z,4.91
2017-03-12T02:05:22.016Z,4.77
2017-03-12T02:06:23.271Z,4.8
2017-03-12T02:07:24.503Z,4.8
2017-03-12T02:08:25.750Z,4.8
2017-03-12T02:09:27.020Z,4.83
2017-03-12T02:10:28.217Z,4.7
2017-03-12T02:11:29.457Z,4.64
2017-03-12T02:12:30.707Z,4.75
2017-03-12T02:13:31.945Z,4.73
2017-03-12T02:14:33.186Z,4.72
2017-03-12T02:15:34.415Z,4.75
2017-03-12T02:16:35.682Z,4.77
2017-03-12T02:17:36.938Z,4.88
2017-03-12T02:18:38.161Z,4.89
2017-03-12T02:19:39.448Z,4.92
2017-03-12T02:20:40.709Z,4.84
2017-03-12T02:21:41.931Z,4.88
2017-03-12T02:22:43.166Z,4.84
2017-03-12T02:23:44.430Z,4.8
2017-03-12T02:24:45.677Z,4.75
2017-03-12T02:25:46.922Z,4.83
2017-03-12T02:26:48.174Z,4.73
2017-03-12T02:27:49.423Z,4.73
2017-03-12T02:28:50.658Z,4.61
2017-03-12T02:29:51.943Z,4.7
2017-03-12T02:30:53.211Z,4.59
2017-03-12T02:31:54.469Z,4.64
2017-03-12T02:32:55.680Z,4.61
2017-03-12T02:33:56.943Z,4.61
2017-03-12T02:34:58.159Z,4.59
2017-03-12T02:35:59.408Z,4.61
2017-03-12T02:37:00.695Z,4.54
2017-03-12T02:38:01.944Z,4.52
2017-03-12T02:39:03.195Z,4.42
2017-03-12T02:40:04.432Z,4.43
2017-03-12T02:41:05.667Z,4.33
2017-03-12T02:42:06.915Z,4.4
2017-03-12T02:43:08.174Z,4.37
2017-03-12T02:44:09.432Z,4.36
2017-03-12T02:45:10.745Z,4.4
2017-03-12T02:46:11.982Z,4.4
2017-03-12T02:47:13.244Z,4.33
2017-03-12T02:48:14.462Z,4.28
2017-03-12T02:49:15.725Z,4.25
2017-03-12T02:50:17.094Z,4.21
2017-03-12T02:51:18.327Z,4.25
2017-03-12T02:52:19.559Z,4.24
2017-03-12T02:53:20.796Z,4.24
2017-03-12T02:54:22.031Z,4.21
2017-03-12T02:55:23.277Z,4.18
2017-03-12T02:56:24.518Z,4.24
2017-03-12T02:57:25.763Z,4.19
2017-03-12T02:58:27.073Z,4.14
2017-03-12T02:59:28.314Z,4.1
2017-03-12T03:00:29.548Z,4.07
2017-03-12T03:01:30.776Z,4.18
2017-03-12T03:02:32.038Z,4.16
2017-03-12T03:03:33.267Z,4.16
2017-03-12T03:04:34.606Z,4.18
2017-03-12T03:05:35.806Z,4.08
2017-03-12T03:06:37.053Z,4.08
2017-03-12T03:07:38.297Z,4.06
2017-03-12T03:08:39.559Z,4.06
2017-03-12T03:09:40.984Z,4.07
2017-03-12T03:10:42.140Z,4.03
2017-03-12T03:11:43.374Z,4.08
2017-03-12T03:12:44.627Z,4.01
2017-03-12T03:13:45.852Z,4.06
2017-03-12T03:14:47.096Z,4.01
2017-03-12T03:15:48.328Z,4
2017-03-12T03:16:49.679Z,3.97
2017-03-12T03:17:50.916Z,3.89
2017-03-12T03:18:52.153Z,3.86
2017-03-12T03:19:53.394Z,3.78
2017-03-12T03:20:54.676Z,3.9
2017-03-12T03:21:55.897Z,3.96
2017-03-12T03:22:57.168Z,3.83
2017-03-12T03:23:58.496Z,3.8
2017-03-12T03:24:59.723Z,3.85
2017-03-12T03:26:00.964Z,3.83
2017-03-12T03:27:02.197Z,3.83
2017-03-12T03:28:03.440Z,3.89
2017-03-12T03:29:04.671Z,3.88
2017-03-12T03:30:05.975Z,3.72
2017-03-12T03:31:07.217Z,3.83
2017-03-12T03:32:08.469Z,3.88
2017-03-12T03:33:09.765Z,3.82
2017-03-12T03:34:11.004Z,3.78
2017-03-12T03:35:12.265Z,3.79
2017-03-12T03:36:13.529Z,3.83
2017-03-12T03:37:14.770Z,3.76
2017-03-12T03:38:16.018Z,3.79
2017-03-12T03:39:17.253Z,3.75
2017-03-12T03:40:18.480Z,3.8
2017-03-12T03:41:19.763Z,3.76
2017-03-12T03:42:21.009Z,3.8
2017-03-12T03:43:22.241Z,3.83
2017-03-12T03:44:23.583Z,3.83
2017-03-12T03:45:24.816Z,3.75
2017-03-12T03:46:26.053Z,3.8
2017-03-12T03:47:27.305Z,3.78
2017-03-12T03:48:28.533Z,3.9
2017-03-12T03:49:29.862Z,3.8
2017-03-12T03:50:31.089Z,3.83
2017-03-12T03:51:32.322Z,3.88
2017-03-12T03:52:33.555Z,3.82
2017-03-12T03:53:34.808Z,3.89
2017-03-12T03:54:36.077Z,3.82
2017-03-12T03:55:37.360Z,3.86
2017-03-12T03:56:38.591Z,3.85
2017-03-12T03:57:39.818Z,3.76
2017-03-12T03:58:41.071Z,3.96
2017-03-12T03:59:42.302Z,3.96
2017-03-12T04:00:43.553Z,4.04
2017-03-12T04:01:44.806Z,4.03
2017-03-12T04:02:46.026Z,4
2017-03-12T04:03:47.320Z,3.96
2017-03-12T04:04:48.549Z,3.83
2017-03-12T04:05:49.810Z,3.98
2017-03-12T04:06:51.066Z,4.03
2017-03-12T04:07:52.327Z,3.97
2017-03-12T04:08:53.600Z,3.97
2017-03-12T04:09:54.824Z,4
2017-03-12T04:10:56.058Z,3.96
2017-03-12T04:11:57.295Z,3.98
2017-03-12T04:12:58.543Z,3.85
2017-03-12T04:13:59.800Z,3.92
2017-03-12T04:15:01.033Z,3.75
2017-03-12T04:16:02.270Z,3.75
2017-03-12T04:17:03.538Z,3.9
2017-03-12T04:18:04.738Z,3.9
2017-03-12T04:19:05.977Z,3.92
2017-03-12T04:20:07.221Z,3.88
2017-03-12T04:21:08.467Z,3.89
2017-03-12T04:22:09.699Z,3.96
2017-03-12T04:23:10.946Z,3.96
2017-03-12T04:24:12.202Z,3.98
2017-03-12T04:25:13.426Z,3.98
2017-03-12T04:26:14.723Z,4.03
2017-03-12T04:27:15.975Z,4.04
2017-03-12T04:28:17.207Z,3.98
2017-03-12T04:29:18.457Z,3.98
2017-03-12T04:30:19.677Z,3.9
2017-03-12T04:31:20.898Z,3.75
2017-03-12T04:32:22.158Z,3.79
2017-03-12T04:33:23.478Z,3.96
2017-03-12T04:34:24.741Z,3.85
2017-03-12T04:35:26.006Z,3.72
2017-03-12T04:36:27.249Z,3.9
2017-03-12T04:37:28.488Z,3.92
2017-03-12T04:38:29.732Z,3.98
2017-03-12T04:39:31.026Z,3.98
2017-03-12T04:40:32.266Z,3.97
2017-03-12T04:41:33.503Z,3.89
2017-03-12T04:42:35.178Z,3.9
2017-03-12T04:43:36.435Z,3.9
2017-03-12T04:44:37.650Z,3.86
2017-03-12T04:45:38.879Z,3.85
2017-03-12T04:46:40.259Z,3.83
2017-03-12T04:47:41.579Z,3.79
2017-03-12T04:48:42.817Z,3.83
2017-03-12T04:49:44.087Z,3.85
2017-03-12T04:50:45.403Z,3.83
2017-03-12T04:51:46.641Z,3.83
2017-03-12T04:52:47.932Z,3.88
2017-03-12T04:53:49.294Z,3.8
2017-03-12T04:54:50.582Z,3.8
2017-03-12T04:55:51.821Z,3.8
2017-03-12T04:56:53.128Z,3.85
2017-03-12T04:57:54.375Z,3.92
2017-03-12T04:58:55.696Z,3.94
2017-03-12T04:59:56.937Z,3.92
2017-03-12T05:00:58.170Z,3.96
2017-03-12T05:01:59.405Z,3.88
2017-03-12T05:03:00.688Z,3.96
2017-03-12T05:04:01.970Z,3.88
2017-03-12T05:05:03.200Z,3.79
2017-03-12T05:06:04.657Z,3.85
2017-03-12T05:07:05.903Z,3.79
2017-03-12T05:08:07.272Z,3.89
2017-03-12T05:09:08.524Z,3.8
2017-03-12T05:10:09.807Z,3.79
2017-03-12T05:11:11.038Z,3.78
2017-03-12T05:12:12.265Z,3.88
2017-03-12T05:13:13.513Z,3.79
2017-03-12T05:14:14.759Z,3.71
2017-03-12T05:15:16.076Z,3.86
2017-03-12T05:16:17.315Z,3.9
2017-03-12T05:17:18.571Z,3.75
2017-03-12T05:18:19.803Z,3.79
2017-03-12T05:19:21.101Z,3.68
2017-03-12T05:20:22.320Z,3.8
2017-03-12T05:21:23.601Z,3.85
2017-03-12T05:22:25.044Z,3.75
2017-03-12T05:23:26.183Z,3.72
2017-03-12T05:24:27.437Z,3.79
2017-03-12T05:25:28.669Z,3.68
2017-03-12T05:26:29.910Z,3.79
2017-03-12T05:27:31.169Z,3.75
2017-03-12T05:28:32.405Z,3.8
2017-03-12T05:29:33.649Z,3.83
2017-03-12T05:30:34.882Z,3.83
2017-03-12T05:31:36.123Z,3.86
2017-03-12T05:32:37.371Z,3.75
2017-03-12T05:33:38.641Z,3.79
2017-03-12T05:34:39.874Z,3.75
2017-03-12T05:35:41.177Z,3.75
2017-03-12T05:36:42.461Z,3.79
2017-03-12T05:37:43.659Z,3.8
2017-03-12T05:38:44.897Z,3.76
2017-03-12T05:39:46.130Z,3.71
2017-03-12T05:40:47.483Z,3.71
2017-03-12T05:41:48.713Z,3.79
2017-03-12T05:42:50.082Z,3.65
2017-03-12T05:43:51.293Z,3.68
2017-03-12T05:44:52.491Z,3.71
2017-03-12T05:45:53.746Z,3.72
2017-03-12T05:46:55.064Z,3.68
2017-03-12T05:47:56.288Z,3.78
2017-03-12T05:48:57.624Z,3.8
2017-03-12T05:49:58.868Z,3.78
2017-03-12T05:51:00.137Z,3.76
2017-03-12T05:52:01.382Z,3.72
2017-03-12T05:53:02.749Z,3.85
2017-03-12T05:54:03.999Z,3.83
2017-03-12T05:55:05.253Z,3.82
2017-03-12T05:56:06.510Z,3.8
2017-03-12T05:57:08.067Z,3.75
2017-03-12T05:58:09.233Z,3.85
2017-03-12T05:59:10.473Z,3.83
2017-03-12T06:00:11.771Z,3.76
2017-03-12T06:01:13.001Z,3.83
2017-03-12T06:02:14.238Z,3.75
2017-03-12T06:03:15.480Z,3.82
2017-03-12T06:04:16.718Z,3.72
2017-03-12T06:05:17.967Z,3.82
2017-03-12T06:06:19.248Z,3.88
2017-03-12T06:07:20.464Z,3.85
2017-03-12T06:08:21.748Z,3.88
2017-03-12T06:09:22.992Z,3.97
2017-03-12T06:10:24.264Z,4.06
2017-03-12T06:11:25.552Z,4.07
2017-03-12T06:12:26.858Z,4.01
2017-03-12T06:13:28.122Z,4.14
2017-03-12T06:14:29.383Z,4.06
2017-03-12T06:15:30.672Z,4.1
2017-03-12T06:16:31.930Z,4.07
2017-03-12T06:17:33.231Z,4.19
2017-03-12T06:18:34.515Z,4.08
2017-03-12T06:19:35.751Z,4.16
2017-03-12T06:20:36.998Z,4.19
2017-03-12T06:21:38.282Z,4.26
2017-03-12T06:22:39.548Z,4.34
2017-03-12T06:23:40.863Z,4.33
2017-03-12T06:24:42.331Z,4.43
2017-03-12T06:25:43.588Z,4.57
2017-03-12T06:26:44.877Z,4.62
2017-03-12T06:27:46.126Z,4.69
2017-03-12T06:28:47.407Z,4.67
2017-03-12T06:29:48.713Z,4.69
2017-03-12T06:30:49.959Z,4.84
2017-03-12T06:31:51.251Z,4.83
2017-03-12T06:32:52.510Z,4.94
2017-03-12T06:33:53.772Z,4.95
2017-03-12T06:34:55.076Z,5.02
2017-03-12T06:35:56.415Z,4.99
2017-03-12T06:36:57.671Z,5.14
2017-03-12T06:37:58.922Z,5.13
2017-03-12T06:39:00.192Z,5.2
2017-03-12T06:40:01.434Z,5.27
2017-03-12T06:41:02.693Z,5.17
2017-03-12T06:42:03.959Z,5.38
2017-03-12T06:43:05.209Z,5.41
2017-03-12T06:44:06.495Z,5.49
2017-03-12T06:45:07.724Z,5.55
2017-03-12T06:46:08.992Z,5.73
2017-03-12T06:47:10.286Z,5.75
2017-03-12T06:48:11.535Z,5.75
2017-03-12T06:49:12.817Z,5.82
2017-03-12T06:50:14.107Z,5.98
2017-03-12T06:51:15.426Z,6
2017-03-12T06:52:16.681Z,6
2017-03-12T06:53:18.010Z,6.07
2017-03-12T06:54:19.324Z,6.18
2017-03-12T06:55:20.741Z,6.3
2017-03-12T06:56:22.001Z,6.26
2017-03-12T06:57:23.264Z,6.32
2017-03-12T06:58:24.589Z,6.43
2017-03-12T06:59:25.862Z,6.38
2017-03-12T07:00:27.273Z,6.53
2017-03-12T07:01:28.564Z,6.56
2017-03-12T07:02:29.843Z,6.71
2017-03-12T07:03:31.141Z,6.83
2017-03-12T07:04:32.420Z,6.94
2017-03-12T07:05:33.724Z,7.09
2017-03-12T07:06:35.027Z,7.29
2017-03-12T07:07:36.312Z,7.52
2017-03-12T07:08:37.552Z,7.63
2017-03-12T07:09:38.817Z,7.82
2017-03-12T07:10:40.100Z,8
2017-03-12T07:11:41.363Z,8.14
2017-03-12T07:12:42.639Z,8.45
2017-03-12T07:13:43.901Z,8.66
2017-03-12T07:14:45.186Z,8.94
2017-03-12T07:15:46.462Z,9.15
2017-03-12T07:16:47.717Z,9.42
2017-03-12T07:17:49.000Z,9.63
2017-03-12T07:18:50.270Z,9.76
2017-03-12T07:19:51.752Z,10.04
2017-03-12T07:20:53.089Z,10.33
2017-03-12T07:21:54.343Z,10.46
2017-03-12T07:22:55.692Z,10.58
2017-03-12T07:23:56.959Z,10.83
2017-03-12T07:24:58.199Z,10.86
2017-03-12T07:25:59.494Z,10.68
2017-03-12T07:27:00.779Z,10.92
2017-03-12T07:28:02.083Z,11.01
2017-03-12T07:29:03.326Z,11.03
2017-03-12T07:30:04.686Z,11.24
2017-03-12T07:31:05.868Z,11.39
2017-03-12T07:32:07.168Z,11.21
2017-03-12T07:33:08.440Z,11.34
2017-03-12T07:34:09.679Z,11.54
2017-03-12T07:35:11.100Z,11.75
2017-03-12T07:36:12.417Z,11.97
2017-03-12T07:37:13.680Z,11.96
2017-03-12T07:38:14.932Z,12.04
2017-03-12T07:39:16.205Z,12.16
2017-03-12T07:40:17.547Z,12.04
2017-03-12T07:41:18.830Z,12.12
2017-03-12T07:42:20.107Z,12.31
2017-03-12T07:43:21.504Z,12.52
2017-03-12T07:44:23.008Z,12.63
2017-03-12T07:45:24.316Z,12.63
2017-03-12T07:46:30.010Z,12.78
2017-03-12T07:47:45.619Z,12.77
2017-03-12T07:48:49.555Z,12.79
2017-03-12T07:49:54.474Z,12.71
2017-03-12T07:56:05.075Z,13.77
2017-03-12T07:58:58.644Z,13.61
2017-03-12T08:03:34.360Z,13.63
2017-03-12T08:50:57.248Z,15.93
2017-03-12T08:51:58.672Z,15.56
2017-03-12T08:53:00.039Z,15.52
2017-03-12T08:54:01.349Z,15.6
2017-03-12T08:55:02.743Z,15.97
2017-03-12T08:56:03.934Z,16.35
2017-03-12T08:57:05.216Z,16.35
2017-03-12T08:58:06.535Z,16.2
2017-03-12T08:59:07.829Z,16.44
2017-03-12T09:00:09.291Z,16.56
2017-03-12T09:01:10.610Z,16.58
2017-03-12T09:02:11.882Z,16.89
2017-03-12T09:03:13.266Z,17.59
2017-03-12T09:04:14.528Z,17.81
2017-03-12T09:05:16.131Z,17.7
2017-03-12T09:06:17.848Z,17.84
2017-03-12T09:07:19.173Z,18.06
2017-03-12T09:08:20.538Z,18.29
2017-03-12T09:09:21.934Z,18.67
2017-03-12T09:10:23.241Z,18.87
2017-03-12T09:11:24.463Z,18.91
2017-03-12T09:12:25.880Z,18.52
2017-03-12T09:13:27.157Z,18.44
2017-03-12T09:14:28.443Z,18.62
2017-03-12T09:15:29.831Z,18.28
2017-03-12T09:16:31.114Z,18.31
2017-03-12T09:17:32.431Z,17.95
2017-03-12T09:18:33.704Z,17.81
2017-03-12T09:19:35.073Z,17.84
2017-03-12T09:20:36.362Z,18.1
2017-03-12T09:21:37.686Z,18.29
2017-03-12T09:22:39.072Z,18.36
2017-03-12T09:23:40.393Z,18.47
2017-03-12T09:24:41.756Z,18.74
2017-03-12T09:25:43.420Z,19.18
2017-03-12T09:26:45.350Z,19.4
2017-03-12T09:27:47.665Z,19.31
2017-03-12T09:28:49.180Z,19.29
2017-03-12T09:29:50.986Z,19.36
2017-03-12T09:30:54.060Z,19.43
2017-03-12T09:31:55.842Z,19.43
2017-03-12T09:32:57.503Z,19.61
2017-03-12T09:33:58.830Z,19.01
2017-03-12T09:35:00.212Z,18.84
2017-03-12T09:36:01.551Z,19.01
2017-03-12T09:37:02.892Z,18.54
2017-03-12T09:38:04.226Z,18.82
2017-03-12T09:39:05.626Z,19.02
2017-03-12T09:40:07.037Z,18.73
2017-03-12T09:41:08.414Z,18.76
2017-03-12T09:42:09.878Z,19.13
2017-03-12T09:43:11.289Z,19.6
2017-03-12T09:44:12.617Z,19.98
2017-03-12T09:45:14.271Z,20.06
2017-03-12T09:46:15.790Z,20.16
2017-03-12T09:47:17.490Z,20.09
2017-03-12T09:48:19.333Z,19.88
2017-03-12T09:49:20.580Z,19.91
2017-03-12T09:50:21.924Z,20.09
2017-03-12T09:51:23.451Z,20.58
2017-03-12T09:52:26.447Z,21.05
2017-03-12T10:25:10.041Z,20.66
2017-03-12T11:02:56.575Z,17.03
2017-03-12T11:03:57.832Z,16.74
2017-03-12T11:04:59.110Z,16.55
2017-03-12T11:06:00.333Z,16.27
2017-03-12T11:07:01.646Z,16.34
2017-03-12T11:08:02.915Z,16.11
2017-03-12T11:09:04.238Z,15.89
2017-03-12T11:10:05.502Z,15.64
2017-03-12T11:11:06.769Z,15.51
2017-03-12T11:12:08.109Z,15.3
2017-03-12T11:13:09.385Z,15.2
2017-03-12T11:14:10.638Z,15.08
2017-03-12T11:15:11.947Z,14.93
2017-03-12T11:16:13.293Z,14.91
2017-03-12T11:17:14.656Z,14.84
2017-03-12T11:18:15.903Z,14.8
2017-03-12T11:19:17.152Z,14.64
2017-03-12T11:20:18.477Z,14.34
2017-03-12T11:21:19.752Z,14.32
2017-03-12T11:22:21.041Z,14.16
2017-03-12T11:23:22.303Z,13.95
2017-03-12T11:24:23.548Z,13.94
2017-03-12T11:25:24.884Z,13.94
2017-03-12T11:26:26.108Z,13.91
2017-03-12T11:27:27.395Z,13.94
2017-03-12T11:28:28.668Z,14.16
2017-03-12T11:29:30.042Z,14.17
2017-03-12T11:30:31.281Z,14.04
2017-03-12T11:31:32.534Z,13.81
2017-03-12T11:32:33.814Z,13.73
2017-03-12T11:33:35.275Z,13.63
2017-03-12T11:34:36.495Z,13.51
2017-03-12T11:35:37.790Z,13.67
2017-03-12T11:36:39.059Z,13.55
2017-03-12T11:37:40.338Z,13.69
2017-03-12T11:38:41.667Z,13.63
2017-03-12T11:39:42.933Z,13.63
2017-03-12T11:40:44.341Z,13.7
2017-03-12T11:41:45.692Z,13.54
2017-03-12T11:42:46.915Z,13.62
2017-03-12T11:43:48.192Z,13.54
2017-03-12T11:44:49.430Z,13.52
2017-03-12T11:45:50.704Z,13.49
2017-03-12T11:46:52.083Z,13.46
2017-03-12T11:47:53.344Z,13.43
2017-03-12T11:48:54.577Z,13.44
2017-03-12T11:49:55.847Z,13.43
2017-03-12T11:50:57.309Z,13.43
2017-03-12T11:51:58.558Z,13.44
2017-03-12T11:52:59.799Z,13.32
2017-03-12T11:54:01.047Z,13.43
2017-03-12T11:55:02.382Z,13.36
2017-03-12T11:56:03.764Z,13.21
2017-03-12T11:57:05.006Z,13.21
2017-03-12T11:58:06.239Z,13.27
2017-03-12T11:59:07.500Z,13.2
2017-03-12T12:00:08.738Z,13.15
2017-03-12T12:01:10.000Z,13.14
2017-03-12T12:02:11.289Z,13.15
2017-03-12T12:03:12.536Z,13.15
2017-03-12T12:04:13.880Z,13.12
2017-03-12T12:05:15.122Z,13.2
2017-03-12T12:06:16.375Z,13.24
2017-03-12T12:07:17.664Z,13.22
2017-03-12T12:08:18.922Z,13.18
2017-03-12T12:09:20.201Z,13.21
2017-03-12T12:10:21.455Z,13.3
2017-03-12T12:11:22.697Z,13.37
2017-03-12T12:12:24.006Z,13.38
2017-03-12T12:13:25.292Z,13.37
2017-03-12T12:14:26.537Z,13.37
2017-03-12T12:15:27.834Z,13.37
2017-03-12T12:16:29.081Z,13.38
2017-03-12T12:17:30.334Z,13.49
2017-03-12T12:18:31.685Z,13.52
2017-03-12T12:19:33.017Z,13.54
2017-03-12T12:20:34.281Z,13.58
2017-03-12T12:21:35.533Z,13.62
2017-03-12T12:22:36.819Z,13.51
2017-03-12T12:23:38.062Z,13.54
2017-03-12T12:24:39.351Z,13.49
2017-03-12T12:25:40.606Z,13.54
2017-03-12T12:26:41.894Z,13.52
2017-03-12T12:27:43.151Z,13.54
2017-03-12T12:28:44.385Z,13.63
2017-03-12T12:29:45.642Z,13.62
2017-03-12T12:30:46.882Z,13.65
2017-03-12T12:31:48.138Z,13.63
2017-03-12T12:32:49.422Z,13.74
2017-03-12T12:33:50.662Z,13.71
2017-03-12T12:34:51.963Z,13.7
2017-03-12T12:35:53.207Z,13.69
2017-03-12T12:36:54.443Z,13.62
2017-03-12T12:37:55.719Z,13.63
2017-03-12T12:38:56.986Z,13.54
2017-03-12T12:39:58.313Z,13.61
2017-03-12T12:40:59.586Z,13.59
2017-03-12T12:42:00.874Z,13.67
2017-03-12T12:43:02.115Z,13.67
2017-03-12T12:44:03.378Z,13.76
2017-03-12T12:45:04.613Z,13.81
2017-03-12T12:46:05.881Z,13.91
2017-03-12T12:47:07.154Z,13.94
2017-03-12T12:48:08.399Z,13.96
2017-03-12T12:49:09.706Z,13.95
2017-03-12T12:50:11.101Z,13.89
2017-03-12T12:51:12.345Z,13.99
2017-03-12T12:52:13.597Z,13.91
2017-03-12T12:53:14.873Z,13.89
2017-03-12T12:54:16.114Z,13.84
2017-03-12T12:55:17.379Z,13.79
2017-03-12T12:56:18.645Z,13.63
2017-03-12T12:57:19.916Z,13.73
2017-03-12T12:58:21.175Z,13.61
2017-03-12T12:59:22.430Z,13.55
2017-03-12T13:00:23.741Z,13.56
2017-03-12T13:01:24.986Z,13.67
2017-03-12T13:02:26.258Z,13.58
2017-03-12T13:03:27.534Z,13.58
2017-03-12T13:04:28.800Z,13.62
2017-03-12T13:05:30.038Z,13.62
2017-03-12T13:06:31.287Z,13.61
2017-03-12T13:07:32.568Z,13.74
2017-03-12T13:08:33.818Z,13.76
2017-03-12T13:09:35.059Z,13.71
2017-03-12T13:10:36.302Z,13.71
2017-03-12T13:11:37.554Z,13.79
2017-03-12T13:12:38.808Z,13.83
2017-03-12T13:13:40.071Z,13.81
2017-03-12T13:14:41.348Z,13.79
2017-03-12T13:15:42.598Z,13.76
2017-03-12T13:16:43.948Z,13.79
2017-03-12T13:17:45.221Z,13.81
2017-03-12T13:18:46.480Z,13.77
2017-03-12T13:19:47.767Z,13.81
2017-03-12T13:20:49.046Z,13.84
2017-03-12T13:21:50.287Z,13.89
2017-03-12T13:22:51.546Z,13.88
2017-03-12T13:23:52.808Z,13.91
2017-03-12T13:24:54.059Z,13.83
2017-03-12T13:25:55.312Z,13.79
2017-03-12T13:26:56.747Z,13.74
2017-03-12T13:27:57.998Z,13.67
2017-03-12T13:28:59.245Z,13.61
2017-03-12T13:30:00.488Z,13.69
2017-03-12T13:31:01.806Z,13.61
2017-03-12T13:32:03.055Z,13.61
2017-03-12T13:33:04.322Z,13.67
2017-03-12T13:34:05.590Z,13.63
2017-03-12T13:35:06.859Z,13.67
2017-03-12T13:36:08.152Z,13.62
2017-03-12T13:37:09.396Z,13.69
2017-03-12T13:38:10.629Z,13.59
2017-03-12T13:39:11.920Z,13.65
2017-03-12T13:40:13.160Z,13.62
2017-03-12T13:41:14.517Z,13.63
2017-03-12T13:42:15.794Z,13.54
2017-03-12T13:43:17.010Z,13.62
2017-03-12T13:44:18.253Z,13.55
2017-03-12T13:45:19.919Z,13.54
2017-03-12T13:46:21.149Z,13.54
2017-03-12T13:47:22.389Z,13.54
2017-03-12T13:48:23.632Z,13.61
2017-03-12T13:49:24.870Z,13.62
2017-03-12T13:50:26.151Z,13.56
2017-03-12T13:51:27.435Z,13.52
2017-03-12T13:52:28.682Z,13.62
2017-03-12T13:53:30.005Z,13.58
2017-03-12T13:54:31.250Z,13.58
2017-03-12T13:55:32.495Z,13.55
2017-03-12T13:56:33.731Z,13.49
2017-03-12T13:57:34.979Z,13.49
2017-03-12T13:58:36.249Z,13.44
2017-03-12T13:59:37.503Z,13.49
2017-03-12T14:00:38.791Z,13.54
2017-03-12T14:01:40.032Z,13.54
2017-03-12T14:02:41.340Z,13.56
2017-03-12T14:03:42.589Z,13.56
2017-03-12T14:04:43.851Z,13.61
2017-03-12T14:05:45.097Z,13.55
2017-03-12T14:06:46.340Z,13.52
2017-03-12T14:07:47.672Z,13.47
2017-03-12T14:08:48.920Z,13.52
2017-03-12T14:09:50.187Z,13.52
2017-03-12T14:10:51.498Z,13.46
2017-03-12T14:11:52.756Z,13.55
2017-03-12T14:12:53.983Z,13.58
2017-03-12T14:13:55.218Z,13.52
2017-03-12T14:14:56.484Z,13.49
2017-03-12T14:15:57.770Z,13.52
2017-03-12T14:16:59.055Z,13.52
2017-03-12T14:18:00.290Z,13.55
2017-03-12T14:19:01.562Z,13.56
2017-03-12T14:20:02.794Z,13.63
2017-03-12T14:21:04.074Z,13.62
2017-03-12T14:22:05.360Z,13.51
2017-03-12T14:23:06.615Z,13.47
2017-03-12T14:24:07.878Z,13.52
2017-03-12T14:25:09.094Z,13.54
2017-03-12T14:26:10.363Z,13.55
2017-03-12T14:27:11.621Z,13.51
2017-03-12T14:28:12.865Z,13.46
2017-03-12T14:29:14.135Z,13.52
2017-03-12T14:30:15.431Z,13.52
2017-03-12T14:31:16.641Z,13.54
2017-03-12T14:32:17.887Z,13.54
2017-03-12T14:33:19.127Z,13.47
2017-03-12T14:34:20.394Z,13.62
2017-03-12T14:35:21.703Z,13.63
2017-03-12T14:36:22.953Z,13.62
2017-03-12T14:37:24.203Z,13.63
2017-03-12T14:38:25.482Z,13.69
2017-03-12T14:39:26.711Z,13.67
2017-03-12T14:40:28.000Z,13.63
2017-03-12T14:41:29.276Z,13.65
2017-03-12T14:42:30.512Z,13.65
2017-03-12T14:43:31.896Z,13.73
2017-03-12T14:44:33.159Z,13.69
2017-03-12T14:45:34.435Z,13.74
2017-03-12T14:46:35.681Z,13.67
2017-03-12T14:47:36.917Z,13.61
2017-03-12T14:48:38.162Z,13.63
2017-03-12T14:49:39.425Z,13.61
2017-03-12T14:50:40.759Z,13.63
2017-03-12T14:51:42.030Z,13.69
2017-03-12T14:52:43.272Z,13.55
2017-03-12T14:53:44.522Z,13.56
2017-03-12T14:54:45.847Z,13.52
2017-03-12T14:55:47.238Z,13.55
2017-03-12T14:56:48.461Z,13.65
2017-03-12T14:57:49.706Z,13.63
2017-03-12T14:58:50.958Z,13.61
2017-03-12T14:59:52.268Z,13.61
2017-03-12T15:00:53.541Z,13.61
2017-03-12T15:01:54.768Z,13.51
2017-03-12T15:02:56.158Z,13.47
2017-03-12T15:03:57.411Z,13.51
2017-03-12T15:04:58.669Z,13.52
2017-03-12T15:05:59.930Z,13.52
2017-03-12T15:07:01.251Z,13.51
2017-03-12T15:08:02.451Z,13.49
2017-03-12T15:09:03.691Z,13.44
2017-03-12T15:10:04.964Z,13.32
2017-03-12T15:11:06.200Z,13.32
2017-03-12T15:12:07.461Z,13.25
2017-03-12T15:13:08.709Z,13.32
2017-03-12T15:14:09.956Z,13.25
2017-03-12T15:15:11.192Z,13.36
2017-03-12T15:16:12.463Z,13.27
2017-03-12T15:17:13.708Z,13.25
2017-03-12T15:18:14.954Z,13.25
2017-03-12T15:19:16.198Z,13.25
2017-03-12T15:20:17.471Z,13.24
2017-03-12T15:21:18.716Z,13.25
2017-03-12T15:22:19.978Z,13.24
2017-03-12T15:23:21.257Z,13.21
2017-03-12T15:24:22.486Z,13.18
2017-03-12T15:25:23.743Z,13.21
2017-03-12T15:26:25.011Z,13.21
2017-03-12T15:27:26.265Z,13.21
2017-03-12T15:28:27.514Z,13.24
2017-03-12T15:29:28.761Z,13.29
2017-03-12T15:30:30.059Z,13.3
2017-03-12T15:31:31.363Z,13.33
2017-03-12T15:32:32.595Z,13.3